Aviation Digital Data Service (ADDS)

Output produced by METARs form (2106 UTC 24 March 2019)
found at http://www.aviationweather.gov/metar/data/
 
KFAR 241739Z 2418/2518 01017G22KT P6SM SCT015 
     FM242300 02012KT P6SM SCT019 
     FM250500 02006KT P6SM BKN028
       
KFAT 241733Z 2418/2518 VRB05KT P6SM SKC
       
KFAY 242000Z 2420/2518 18011G18KT P6SM SCT250 
     FM242300 21009KT P6SM BKN250 
     FM251400 22011KT P6SM SCT040 BKN080
       
TAF KFBG 241700Z 2417/2523 21010G15KT 9999 FEW250 QNH3012INS 
     BECMG 2423/2424 22009KT 9999 FEW250 QNH3010INS 
     BECMG 2510/2511 20009KT 9999 SCT045 BKN060 QNH3009INS 
     BECMG 2516/2517 21012G22KT 9999 SCT025 BKN045 QNH2998INS 
     BECMG 2520/2521 22010G15KT 9000 -SHRA BKN030 OVC060 QNH2995INS TX22/2419Z
TN09/2509Z
       
TAF KFCS 242100Z 2421/2603 15009KT 8000 -SHRA BKN060 610604 QNH3006INS 
     TEMPO 2421/2500 VRB15G25KT VCTS BKN030CB BKN050 610307 510009 
     BECMG 2501/2502 VRB06KT 9999 NSW SCT040 BKN070 QNH3014INS 
     BECMG 2513/2514 VRB06KT 9999 SKC QNH3025INS 
     BECMG 2517/2518 21009KT 9999 SKC QNH3018INS TX13/2423Z TN00/2510Z
       
KFDY 241731Z 2418/2518 23007KT P6SM BKN040 OVC100 
     FM242100 26006KT P6SM VCSH BKN040 OVC070 
     FM250000 00000KT 6SM -RA BR OVC040 
     FM250400 03005KT P6SM SCT030 OVC035 
     TEMPO 2507/2509 BKN020 OVC035 
     FM250900 04012G22KT P6SM BKN015 OVC090 
     FM251300 04015G25KT P6SM BKN040 OVC100
       
TAF KFFO 241900Z 2419/2601 19009KT 9999 BKN040 OVC060 620804 QNH3010INS 
     BECMG 2422/2423 19006KT 9000 -RA BKN040 620809 QNH3009INS 
     BECMG 2500/2501 VRB06KT 9999 NSW OVC040 620806 QNH3005INS 
     BECMG 2507/2508 06009KT 6000 -RA OVC025 620806 QNH3006INS 
     BECMG 2513/2514 03012G18KT 9999 NSW OVC020 620809 QNH3010INS 
     BECMG 2515/2516 03015G25KT 9999 SCT010 QNH3011INS TX14/2419Z TN03/2515Z
       
KFKL 241720Z 2418/2518 28008KT P6SM SCT120 BKN200 
     FM250800 36005KT P6SM OVC025 
     FM251300 03007KT P6SM BKN050 
     FM251600 02007KT P6SM SCT250
       
KFLG 241723Z 2418/2518 23011G17KT P6SM SKC 
     FM250200 VRB03KT P6SM SCT250
       
KFLL 242051Z 2421/2524 11016KT P6SM SCT045 SCT250 
     FM250300 09008KT P6SM SCT035 
     FM251400 10010KT P6SM SCT030 BKN050
       
KFLO 241720Z 2418/2518 19009KT P6SM FEW250 
     FM250000 18002KT P6SM SCT250 
     FM251000 18004KT 6SM BR SCT040 BKN150 
     FM251500 21009KT P6SM SCT040 BKN100
       
KFMH 241726Z 2418/2518 23014G21KT P6SM SKC 
     FM242100 24015G24KT P6SM BKN150 
     FM250100 24010KT P6SM OVC100 
     FM250600 25006KT P6SM BKN100 
     FM251600 01008KT P6SM SCT250
       
KFMN 241725Z 2418/2518 27011KT P6SM FEW070 
     FM241900 28014G22KT P6SM SKC 
     FM250130 32006KT P6SM SKC 
     FM250600 07005KT P6SM SKC
       
KFMY 241734Z 2418/2518 10008KT P6SM FEW250 
     FM242100 15008KT P6SM FEW050 SCT250 
     FM250100 VRB03KT P6SM FEW030 FEW250 
     FM251600 14006KT P6SM FEW030 SCT250
       
KFNT 241857Z 2419/2518 26010KT P6SM BKN250 
     FM250000 02012G18KT P6SM BKN035 OVC060 
     FM250400 01012KT P6SM SCT040 
     FM251100 35010KT P6SM SKC
       
KFOD 241725Z 2418/2518 05007KT 1 1/2SM BR OVC004 
     FM250100 04006KT P6SM OVC013 
     FM251600 05007KT P6SM BKN035
       
KFOE 241732Z 2418/2518 29010KT P6SM BKN022 
     TEMPO 2418/2422 SCT022 BKN035 
     FM242200 35011KT P6SM BKN022 
     TEMPO 2422/2501 SCT022 BKN035 
     FM250100 36008KT P6SM BKN006
       
KFPR 241720Z 2418/2518 11015KT P6SM SCT045 SCT250 
     FM250000 12005KT P6SM FEW030 SCT250 
     FM251400 12008KT P6SM SCT045 SCT250
       
KFSD 241720Z 2418/2518 03012KT P6SM BKN045 
     FM250000 03012KT P6SM BKN010 
     FM250300 04009KT P6SM BKN010 
     FM251400 06006KT P6SM BKN015 
     FM251600 07006KT P6SM BKN020
       
TAF AMD KFSI 241340Z 2413/2519 VRB06KT 9999 BKN004 QNH2994INS 
     BECMG 2415/2416 35009KT 9999 BKN012 QNH2997INS 
     BECMG 2416/2417 35009KT 9999 SKC QNH2996INS 
     BECMG 2506/2507 03009KT 9000 BR SCT012 QNH3006INS 
     TEMPO 2512/2514 BKN012 
     BECMG 2515/2516 03010G15KT 9999 NSW SCT012 QNH3020INS 
     BECMG 2518/2519 02012KT 9999 FEW030 QNH3024INS TX20/2420Z TN09/2513Z
       
KFSM 241720Z 2418/2518 09005KT P6SM BKN025 
     FM242000 22008KT P6SM BKN035 
     TEMPO 2422/2501 2SM TSRA BKN025CB 
     FM250100 26008KT P6SM BKN050 
     FM250300 31008KT P6SM SCT250 
     FM251500 32008KT P6SM BKN025
       
KFST 242009Z 2420/2518 29009KT P6SM SCT250 
     TEMPO 2420/2424 29010G20KT 
     FM250300 23011KT P6SM SCT250
       
TAF KFTK 241700Z 2417/2523 VRB06KT 9000 -SHRA BKN050 OVC080 610703 QNH3004INS 
     BECMG 2423/2424 VRB06KT 9999 NSW BKN025 OVC040 620703 QNH3004INS 
     BECMG 2505/2506 VRB06KT 8000 -SHRA BKN020 OVC035 610703 QNH2994INS 
     BECMG 2509/2510 VRB06KT 6000 -RA BR BKN003 OVC005 620703 QNH2993INS 
     BECMG 2516/2517 04015G25KT 9000 -RA BKN015 OVC030 620703 QNH3003INS 
     BECMG 2522/2523 03012KT 9999 NSW BKN030 620703 QNH3005INS TX17/2419Z
TN10/2517Z
       
KFTW 242100Z 2421/2518 19012KT P6SM VCSH SCT040 BKN250 
     FM250100 21008KT P6SM VCTS BKN050CB 
     TEMPO 2502/2504 34020G30KT 2SM TSRA BKN028CB 
     FM250430 34009KT P6SM SCT040 BKN080 
     FM250900 02011KT P6SM SCT100 BKN250 
     FM251500 36013KT P6SM SKC
       
KFTY 241740Z 2418/2518 20009G18KT P6SM BKN250 
     FM250100 21003KT P6SM SCT200 
     FM250400 VRB03KT P6SM BKN080 
     FM251300 23006KT P6SM VCSH BKN050
       
KFVE 241720Z 2418/2518 32012G20KT P6SM VCSH BKN070 
     FM242300 33009KT P6SM BKN250 
     FM251000 30004KT P6SM FEW250 
     FM251400 28011G22KT P6SM SCT045
       
KFWA 241728Z 2418/2518 22008KT P6SM SCT040 OVC070 
     FM242300 22004KT P6SM -SHRA OVC040 
     TEMPO 2500/2504 4SM -SHRA BR BKN030 
     FM250800 04010KT P6SM OVC015 
     FM251400 05013KT P6SM BKN050
       
KFXE 242051Z 2421/2518 10015KT P6SM SCT045 SCT250 
     FM250100 10006KT P6SM SCT035 
     FM251400 08008KT P6SM SCT035 SCT050
       
KFYV 241720Z 2418/2518 19015KT P6SM BKN015 
     FM242000 21014KT P6SM BKN025 
     TEMPO 2421/2424 3SM -TSRA BKN025CB 
     FM250100 28005KT P6SM BKN050 
     FM250300 33004KT P6SM SCT250 
     FM251200 35007KT P6SM BKN015